Time;durP1;ratioP1;P1;durP2;ratioP2;P2;SDS_P1;SDS_P2;PMS_P1;PMS_P2;Temp;Humidity;BMP_temperature;BMP_pressure;BME280_temperature;BME280_humidity;BME280_pressure;Samples;Min_cycle;Max_cycle;Signal;HPM_P1;HPM_P2
2022/02/07 00:00:22;;;;;;;0.60;0.60;;;7.60;66.20;;;;;;4996662;28;20453;-46
2022/02/07 00:05:25;;;;;;;0.60;0.50;;;7.20;67.40;;;;;;5004004;28;20840;-45
2022/02/07 00:07:52;;;;;;;0.50;0.50;;;7.30;68.00;;;;;;5005292;28;20514;-49
2022/02/07 00:10:18;;;;;;;2.00;0.60;;;7.30;68.40;;;;;;5008780;28;20476;-47
2022/02/07 00:12:47;;;;;;;1.53;0.50;;;7.30;68.50;;;;;;5003384;28;20453;-47
2022/02/07 00:15:17;;;;;;;0.60;0.60;;;7.20;69.30;;;;;;5006730;28;20440;-46
2022/02/07 00:17:43;;;;;;;0.70;0.50;;;7.10;70.10;;;;;;5004714;28;20445;-46
2022/02/07 00:20:14;;;;;;;0.50;0.50;;;7.20;70.60;;;;;;5006941;28;20511;-46
2022/02/07 00:22:40;;;;;;;0.67;0.50;;;7.30;70.00;;;;;;4998859;28;20560;-45
2022/02/07 00:25:06;;;;;;;0.50;0.50;;;7.40;70.10;;;;;;5006954;28;20560;-46
2022/02/07 00:27:32;;;;;;;0.60;0.50;;;7.50;69.70;;;;;;5009565;28;20217;-46
2022/02/07 00:29:57;;;;;;;0.50;0.40;;;7.50;69.80;;;;;;5011635;28;20436;-48
2022/02/07 00:32:23;;;;;;;0.50;0.50;;;7.20;69.80;;;;;;5007257;28;20201;-48
2022/02/07 00:34:49;;;;;;;0.50;0.50;;;7.20;71.10;;;;;;5006765;28;20202;-47
2022/02/07 00:37:15;;;;;;;0.47;0.40;;;7.20;71.40;;;;;;5008733;28;20186;-49
2022/02/07 00:39:57;;;;;;;0.57;0.47;;;7.30;71.80;;;;;;5006112;28;20932;-46
2022/02/07 00:42:29;;;;;;;0.70;0.60;;;7.40;71.20;;;;;;5003478;28;20456;-45
2022/02/07 00:44:55;;;;;;;0.70;0.70;;;7.60;70.70;;;;;;5001187;28;20923;-47
2022/02/07 00:47:21;;;;;;;1.73;0.57;;;7.70;70.70;;;;;;5008558;28;20872;-49
2022/02/07 00:49:47;;;;;;;1.53;0.60;;;7.50;70.10;;;;;;5007512;28;20540;-46
2022/02/07 00:52:12;;;;;;;0.40;0.40;;;7.50;70.50;;;;;;5005397;28;20198;-47
2022/02/07 00:54:38;;;;;;;2.87;0.60;;;7.30;70.20;;;;;;5002939;28;20206;-46
2022/02/07 00:57:04;;;;;;;0.50;0.50;;;7.10;70.40;;;;;;5002209;28;20206;-45
2022/02/07 00:59:29;;;;;;;0.50;0.50;;;6.90;71.10;;;;;;5006586;28;20649;-46
2022/02/07 01:01:55;;;;;;;0.80;0.53;;;7.10;71.60;;;;;;5002510;28;20281;-45
2022/02/07 01:04:20;;;;;;;1.60;0.80;;;7.20;71.00;;;;;;5009582;28;20647;-48
2022/02/07 01:06:46;;;;;;;0.40;0.40;;;7.40;70.10;;;;;;5004493;28;20193;-46
2022/02/07 01:09:22;;;;;;;3.03;1.17;;;7.50;69.80;;;;;;5003404;28;20230;-45
2022/02/07 01:49:42;;;;;;;0.70;0.53;;;8.20;66.60;;;;;;5004910;28;20963;-45
2022/02/07 01:54:47;;;;;;;0.70;0.50;;;8.20;66.50;;;;;;5005429;28;20453;-47
2022/02/07 01:57:14;;;;;;;0.60;0.60;;;8.40;66.50;;;;;;5005300;28;20440;-48
2022/02/07 01:59:40;;;;;;;0.60;0.60;;;8.20;66.30;;;;;;5006753;28;20437;-46
2022/02/07 02:02:07;;;;;;;0.93;0.53;;;7.90;67.10;;;;;;5004690;28;20884;-47
2022/02/07 02:04:33;;;;;;;0.50;0.40;;;8.00;67.60;;;;;;5001374;28;20542;-48
2022/02/07 02:06:59;;;;;;;0.63;0.50;;;8.00;67.60;;;;;;5004241;28;20440;-45
2022/02/07 02:09:29;;;;;;;0.70;0.60;;;7.80;67.80;;;;;;5006632;28;20473;-46
2022/02/07 02:11:54;;;;;;;0.57;0.57;;;7.70;67.90;;;;;;5004999;28;20213;-46
2022/02/07 02:17:14;;;;;;;1.27;0.60;;;7.40;68.00;;;;;;5004476;28;20194;-44
2022/02/07 02:38:43;;;;;;;1.00;0.70;;;8.00;64.40;;;;;;5007289;28;20810;-45
2022/02/07 02:46:37;;;;;;;0.60;0.60;;;8.20;64.10;;;;;;5002589;28;20542;-45
2022/02/07 02:49:03;;;;;;;3.33;0.80;;;8.30;64.10;;;;;;4999831;28;20448;-45
2022/02/07 02:51:30;;;;;;;2.77;0.60;;;8.40;63.80;;;;;;5005416;28;20194;-44
2022/02/07 02:53:56;;;;;;;0.70;0.60;;;8.40;64.10;;;;;;5008569;28;20194;-47
2022/02/07 02:56:22;;;;;;;2.27;0.80;;;8.30;63.70;;;;;;5002501;28;20487;-44
2022/02/07 02:58:48;;;;;;;5.67;1.23;;;8.10;63.80;;;;;;5004207;28;20962;-45
2022/02/07 03:01:14;;;;;;;1.30;0.80;;;8.00;63.30;;;;;;5011068;28;20516;-46
2022/02/07 03:03:39;;;;;;;2.50;1.07;;;8.00;64.30;;;;;;5013648;28;20261;-47
2022/02/07 03:06:05;;;;;;;1.90;0.73;;;8.00;65.00;;;;;;5016440;28;20193;-44
2022/02/07 03:08:32;;;;;;;1.80;0.97;;;8.10;65.60;;;;;;5013536;28;20222;-46
2022/02/07 03:11:05;;;;;;;0.77;0.60;;;8.10;65.10;;;;;;5018268;28;20275;-45
2022/02/07 03:13:44;;;;;;;1.10;0.80;;;8.10;65.40;;;;;;5012235;28;20441;-46
2022/02/07 03:18:54;;;;;;;0.80;0.70;;;7.90;65.70;;;;;;5012926;28;20459;-45
2022/02/07 03:21:20;;;;;;;2.97;0.90;;;7.60;65.90;;;;;;5013876;28;20920;-45
2022/02/07 03:23:45;;;;;;;1.10;0.83;;;7.50;66.70;;;;;;5013735;28;20233;-44
2022/02/07 03:26:14;;;;;;;2.00;0.77;;;7.50;67.40;;;;;;5010878;28;20194;-45
2022/02/07 03:28:39;;;;;;;2.17;0.80;;;7.40;67.70;;;;;;5013315;28;20232;-45
2022/02/07 03:31:05;;;;;;;1.37;0.70;;;7.50;67.70;;;;;;5011924;28;20429;-45
2022/02/07 03:33:30;;;;;;;2.20;0.83;;;7.40;67.70;;;;;;5012846;28;20622;-45
2022/02/07 03:35:56;;;;;;;1.43;0.70;;;7.20;68.10;;;;;;5013716;28;20233;-46
2022/02/07 03:38:22;;;;;;;1.80;0.67;;;7.10;66.80;;;;;;5011492;28;20198;-46
2022/02/07 03:40:47;;;;;;;2.07;0.80;;;6.80;67.80;;;;;;5013164;28;20636;-46
2022/02/07 03:43:13;;;;;;;0.67;0.67;;;6.60;68.80;;;;;;5011774;28;20304;-45
2022/02/07 03:45:38;;;;;;;0.70;0.70;;;6.40;69.10;;;;;;5012786;28;20209;-44
2022/02/07 03:48:04;;;;;;;1.13;0.67;;;6.30;69.70;;;;;;5006081;28;20198;-45
2022/02/07 03:50:30;;;;;;;0.77;0.50;;;6.20;69.30;;;;;;5008708;28;20244;-46
2022/02/07 03:52:56;;;;;;;0.60;0.50;;;6.30;69.90;;;;;;5011410;28;20429;-47
2022/02/07 03:55:21;;;;;;;0.80;0.63;;;6.20;69.90;;;;;;5011457;28;20186;-45
2022/02/07 03:57:47;;;;;;;0.90;0.60;;;6.20;70.30;;;;;;5008635;28;20193;-46
2022/02/07 04:00:14;;;;;;;1.37;0.60;;;6.10;69.60;;;;;;5004525;28;20202;-44
2022/02/07 04:02:44;;;;;;;0.83;0.50;;;6.30;69.00;;;;;;5011238;28;20198;-45
2022/02/07 04:07:53;;;;;;;0.70;0.57;;;6.20;68.70;;;;;;5014092;28;20502;-44
2022/02/07 04:10:21;;;;;;;1.20;0.70;;;6.40;69.40;;;;;;5011175;28;20481;-45
2022/02/07 04:12:53;;;;;;;2.20;0.60;;;6.50;68.90;;;;;;5012015;28;20708;-45
2022/02/07 04:15:19;;;;;;;1.40;0.80;;;6.60;68.10;;;;;;5009909;28;20519;-45
2022/02/07 04:17:52;;;;;;;4.63;0.80;;;6.70;68.00;;;;;;5011889;28;20444;-45
2022/02/07 04:20:18;;;;;;;1.50;0.70;;;6.80;67.70;;;;;;5012917;28;20531;-46
2022/02/07 04:22:44;;;;;;;3.93;1.40;;;7.00;66.90;;;;;;5005913;28;20477;-46
2022/02/07 04:25:10;;;;;;;0.93;0.60;;;7.10;66.40;;;;;;5011518;28;20437;-46
2022/02/07 04:27:36;;;;;;;1.50;0.60;;;7.10;66.20;;;;;;5011668;28;20425;-45
2022/02/07 04:30:06;;;;;;;0.83;0.70;;;7.00;66.10;;;;;;5013994;28;20190;-45
2022/02/07 04:32:32;;;;;;;4.40;1.20;;;7.00;66.10;;;;;;5010138;28;20241;-46
2022/02/07 04:34:58;;;;;;;0.97;0.83;;;7.20;65.90;;;;;;5011829;28;20437;-45
2022/02/07 04:37:24;;;;;;;0.70;0.60;;;7.30;65.30;;;;;;5011440;28;20200;-46
2022/02/07 04:39:52;;;;;;;2.17;0.90;;;7.40;64.70;;;;;;5012799;28;20996;-46
2022/02/07 04:42:18;;;;;;;0.93;0.63;;;7.40;64.20;;;;;;5010538;28;20428;-46
2022/02/07 04:45:04;;;;;;;2.13;0.87;;;7.40;64.20;;;;;;5011097;28;20539;-45
2022/02/07 04:47:53;;;;;;;0.67;0.67;;;7.40;64.10;;;;;;5009134;28;20440;-45
2022/02/07 04:50:39;;;;;;;1.57;0.60;;;7.20;64.50;;;;;;5010432;28;20472;-47
2022/02/07 04:53:39;;;;;;;1.03;0.60;;;7.00;64.90;;;;;;5011222;28;20525;-45
2022/02/07 04:56:59;;;;;;;0.50;0.50;;;7.00;65.10;;;;;;5013632;28;20819;-46
2022/02/07 04:59:05;;;;;;;0.70;0.70;;;7.20;64.70;;;;;;5011136;28;20484;-45
2022/02/07 05:01:35;;;;;;;0.60;0.60;;;7.20;63.40;;;;;;5008154;28;20472;-45
2022/02/07 05:04:08;;;;;;;0.80;0.70;;;7.20;63.70;;;;;;5005787;28;20528;-47
2022/02/07 05:14:50;;;;;;;1.67;0.60;;;7.40;62.70;;;;;;5011769;28;20507;-44
2022/02/07 05:17:19;;;;;;;0.90;0.80;;;7.50;62.80;;;;;;4998693;28;20475;-46
2022/02/07 05:19:44;;;;;;;1.37;0.77;;;7.50;61.90;;;;;;5003892;28;20468;-45
2022/02/07 05:22:10;;;;;;;2.07;0.87;;;7.60;61.40;;;;;;5007943;28;20432;-45
2022/02/07 05:24:35;;;;;;;0.70;0.60;;;7.60;61.10;;;;;;5006177;28;20225;-44
2022/02/07 05:27:01;;;;;;;3.30;0.80;;;7.60;61.10;;;;;;5008008;28;20619;-45
2022/02/07 05:29:27;;;;;;;3.93;0.67;;;7.50;61.10;;;;;;5005812;28;20210;-45
2022/02/07 05:31:52;;;;;;;1.03;0.70;;;7.50;61.30;;;;;;5005692;28;20186;-45
2022/02/07 05:34:18;;;;;;;0.70;0.60;;;7.30;61.10;;;;;;5004143;28;20192;-45
2022/02/07 05:36:45;;;;;;;4.60;0.73;;;7.10;61.40;;;;;;5002575;28;20202;-45
2022/02/07 05:39:18;;;;;;;2.00;0.90;;;6.80;62.90;;;;;;5008617;28;20308;-45
2022/02/07 05:41:45;;;;;;;2.87;0.90;;;6.80;62.70;;;;;;5002368;28;20448;-45
2022/02/07 05:44:12;;;;;;;3.90;1.10;;;6.80;63.00;;;;;;5000591;28;20484;-45
2022/02/07 05:46:38;;;;;;;2.20;1.33;;;6.90;63.00;;;;;;5001995;28;20451;-45
2022/02/07 05:49:04;;;;;;;7.53;1.40;;;6.90;62.90;;;;;;5009479;28;20433;-45
2022/02/07 05:51:29;;;;;;;4.27;1.23;;;6.70;62.90;;;;;;5006794;28;20274;-45
2022/02/07 05:53:55;;;;;;;4.93;1.23;;;6.50;63.30;;;;;;5008046;28;20207;-45
2022/02/07 05:56:21;;;;;;;3.43;1.60;;;6.60;63.70;;;;;;5007167;28;20556;-45
2022/02/07 05:58:46;;;;;;;5.10;1.30;;;6.70;63.40;;;;;;5005937;28;20201;-45
2022/02/07 06:01:12;;;;;;;0.90;0.80;;;6.60;62.80;;;;;;5003901;28;20198;-45
2022/02/07 06:03:37;;;;;;;2.40;0.77;;;6.70;62.90;;;;;;5011600;28;20230;-45
2022/02/07 06:06:03;;;;;;;4.43;0.97;;;6.80;62.70;;;;;;5010859;28;20197;-44
2022/02/07 06:08:31;;;;;;;7.63;2.17;;;6.70;62.60;;;;;;5009725;28;20240;-46
2022/02/07 06:11:06;;;;;;;5.23;0.90;;;6.70;62.50;;;;;;5010600;28;20206;-46
2022/02/07 06:13:32;;;;;;;3.37;1.30;;;6.60;62.30;;;;;;5010138;28;20548;-45
2022/02/07 06:15:57;;;;;;;2.23;1.00;;;6.70;62.20;;;;;;5010648;28;20464;-45
2022/02/07 06:18:24;;;;;;;6.00;1.27;;;6.80;62.40;;;;;;5010448;28;20300;-45
2022/02/07 06:20:54;;;;;;;3.43;1.00;;;6.60;63.00;;;;;;5007755;28;20233;-45
2022/02/07 06:23:20;;;;;;;3.33;1.40;;;6.70;63.40;;;;;;5001471;28;20482;-45
2022/02/07 06:25:46;;;;;;;1.57;1.17;;;6.80;62.80;;;;;;5011762;28;20919;-44
2022/02/07 06:28:11;;;;;;;3.57;1.23;;;7.00;62.60;;;;;;5010375;28;20630;-45
2022/02/07 06:30:37;;;;;;;6.00;1.33;;;7.00;62.50;;;;;;5011049;28;20436;-46
2022/02/07 06:33:06;;;;;;;4.03;1.10;;;7.30;62.40;;;;;;5013544;28;20193;-44
2022/02/07 06:35:32;;;;;;;3.63;1.47;;;7.40;61.60;;;;;;5015858;28;20190;-44
2022/02/07 06:37:57;;;;;;;1.90;0.83;;;7.50;61.30;;;;;;5013286;28;20475;-44
2022/02/07 06:40:23;;;;;;;2.50;0.87;;;7.60;61.10;;;;;;5009940;28;20587;-44
2022/02/07 06:42:49;;;;;;;8.03;1.70;;;7.40;60.70;;;;;;5012345;28;20251;-44
2022/02/07 06:45:14;;;;;;;3.37;0.90;;;7.20;60.90;;;;;;5013413;28;20280;-45
2022/02/07 06:47:40;;;;;;;2.83;1.13;;;7.30;61.80;;;;;;5022562;28;20205;-44
2022/02/07 06:50:05;;;;;;;58.00;33.17;;;7.40;61.50;;;;;;5015681;28;20186;-44
2022/02/07 06:52:31;;;;;;;9.63;5.27;;;7.60;61.40;;;;;;5014499;28;20225;-45
2022/02/07 06:54:57;;;;;;;3.83;1.80;;;7.60;60.50;;;;;;5014670;28;20638;-44
2022/02/07 06:57:23;;;;;;;1.27;0.97;;;7.60;60.30;;;;;;5014485;28;20199;-46
2022/02/07 06:59:49;;;;;;;2.50;1.00;;;7.50;60.60;;;;;;5013652;28;20225;-45
2022/02/07 07:02:15;;;;;;;1.93;1.30;;;7.40;60.60;;;;;;5015974;28;20468;-44
2022/02/07 07:04:41;;;;;;;2.70;1.40;;;7.30;60.80;;;;;;5011686;28;20229;-44
2022/02/07 07:07:06;;;;;;;3.63;1.07;;;7.40;60.90;;;;;;5018240;28;20802;-44
2022/02/07 07:09:33;;;;;;;2.93;1.10;;;7.20;60.50;;;;;;5017127;28;20228;-45
2022/02/07 07:12:08;;;;;;;1.43;1.17;;;7.20;60.90;;;;;;5013392;28;20232;-44
2022/02/07 07:17:06;;;;;;;4.50;1.60;;;7.50;61.20;;;;;;5016515;28;20441;-45
2022/02/07 07:19:32;;;;;;;3.43;1.23;;;7.50;60.90;;;;;;5013655;28;20436;-44
2022/02/07 07:21:57;;;;;;;8.60;1.90;;;7.60;60.30;;;;;;5023603;28;20432;-45
2022/02/07 07:24:23;;;;;;;4.67;1.20;;;7.40;60.30;;;;;;5011743;28;20221;-45
2022/02/07 07:26:49;;;;;;;4.20;1.40;;;7.50;60.80;;;;;;5012856;28;20236;-44
2022/02/07 07:29:19;;;;;;;7.13;2.10;;;7.50;60.60;;;;;;5012360;28;20437;-45
2022/02/07 07:31:52;;;;;;;7.10;1.37;;;7.60;60.00;;;;;;5013939;28;20625;-45
2022/02/07 07:34:18;;;;;;;3.80;1.10;;;7.60;59.70;;;;;;5012604;28;20441;-46
2022/02/07 07:36:45;;;;;;;3.57;1.30;;;7.50;59.40;;;;;;5012792;28;20823;-45
2022/02/07 07:39:13;;;;;;;1.40;0.97;;;7.10;59.60;;;;;;5007149;28;20501;-45
2022/02/07 07:41:41;;;;;;;6.00;1.50;;;7.40;60.60;;;;;;5012015;28;20476;-47
2022/02/07 07:44:07;;;;;;;3.57;1.10;;;7.50;59.70;;;;;;5013702;28;20515;-45
2022/02/07 07:46:33;;;;;;;2.37;1.10;;;7.70;59.40;;;;;;5013962;28;20417;-45
2022/02/07 07:49:04;;;;;;;3.80;1.30;;;7.90;59.00;;;;;;5006175;28;20492;-44
2022/02/07 08:02:19;;;;;;;4.13;1.20;;;8.80;57.20;;;;;;5011522;28;20483;-45
2022/02/07 08:04:47;;;;;;;4.63;1.50;;;9.00;56.40;;;;;;5012276;28;20485;-44
2022/02/07 08:07:29;;;;;;;4.87;1.10;;;9.10;56.30;;;;;;5011206;28;20499;-46
2022/02/07 08:12:40;;;;;;;5.90;1.23;;;9.00;56.10;;;;;;5002306;28;20476;-45
2022/02/07 08:15:06;;;;;;;3.70;1.90;;;8.90;56.30;;;;;;5013042;28;20436;-45
2022/02/07 08:17:32;;;;;;;5.50;1.43;;;8.70;56.30;;;;;;5011278;28;20990;-45
2022/02/07 08:19:58;;;;;;;2.53;1.10;;;8.70;56.70;;;;;;5012871;28;20563;-44
2022/02/07 08:22:24;;;;;;;4.83;1.80;;;8.90;56.80;;;;;;5005121;28;20187;-46
2022/02/07 08:25:00;;;;;;;1.43;1.20;;;8.70;56.30;;;;;;5011551;28;20499;-46
2022/02/07 08:27:27;;;;;;;5.37;1.40;;;8.70;56.50;;;;;;5008953;28;20440;-45
2022/02/07 08:29:54;;;;;;;4.00;1.33;;;8.70;56.50;;;;;;5011016;28;20444;-45
2022/02/07 08:32:20;;;;;;;3.17;1.40;;;8.60;56.30;;;;;;5012640;28;20507;-47
2022/02/07 08:34:46;;;;;;;9.40;1.80;;;8.60;56.80;;;;;;5006256;28;20914;-46
2022/02/07 08:37:12;;;;;;;6.43;1.30;;;8.70;56.80;;;;;;5006013;28;20527;-46
2022/02/07 08:39:37;;;;;;;3.50;1.37;;;8.70;56.80;;;;;;4993467;28;20589;-45
2022/02/07 08:42:03;;;;;;;2.20;1.20;;;8.70;56.60;;;;;;4996290;28;20206;-46
2022/02/07 08:44:29;;;;;;;5.43;1.93;;;8.70;56.40;;;;;;5012347;28;20229;-45
2022/02/07 08:46:55;;;;;;;5.63;2.33;;;8.70;56.80;;;;;;5011788;28;20198;-44
2022/02/07 08:49:22;;;;;;;3.97;1.30;;;8.80;57.00;;;;;;5012130;28;20194;-46
2022/02/07 08:51:49;;;;;;;7.47;1.60;;;9.00;56.80;;;;;;5011638;28;20437;-45
2022/02/07 08:54:25;;;;;;;3.33;1.20;;;8.90;56.30;;;;;;5010921;28;20517;-45
2022/02/07 08:57:12;;;;;;;5.10;1.10;;;9.10;56.20;;;;;;5002938;28;20433;-47
2022/02/07 08:59:53;;;;;;;10.27;1.53;;;9.00;56.00;;;;;;5015128;28;20439;-45
2022/02/07 09:02:37;;;;;;;4.90;1.70;;;8.90;56.00;;;;;;5013567;28;20498;-46
2022/02/07 09:07:37;;;;;;;2.70;1.00;;;8.80;56.40;;;;;;5004878;28;20470;-45
2022/02/07 09:10:04;;;;;;;3.20;1.50;;;8.90;56.90;;;;;;5011164;28;20476;-44
2022/02/07 09:12:29;;;;;;;4.40;1.10;;;8.80;57.10;;;;;;5015095;28;20444;-44
2022/02/07 09:15:17;;;;;;;3.10;1.20;;;8.60;56.50;;;;;;5004829;28;20483;-44
2022/02/07 09:17:42;;;;;;;3.93;1.57;;;8.40;56.90;;;;;;5013337;28;20198;-45
2022/02/07 09:20:08;;;;;;;3.40;1.23;;;8.40;58.00;;;;;;5010229;28;20805;-44
2022/02/07 09:22:34;;;;;;;3.73;1.40;;;8.20;57.20;;;;;;5003388;28;20202;-44
2022/02/07 09:25:00;;;;;;;3.87;1.50;;;8.20;57.70;;;;;;5010998;28;20480;-45
2022/02/07 09:27:25;;;;;;;4.43;1.33;;;8.10;57.80;;;;;;5013367;28;20268;-45
2022/02/07 09:29:51;;;;;;;4.80;2.20;;;8.30;58.10;;;;;;5010883;28;20213;-45
2022/02/07 09:32:16;;;;;;;3.10;2.63;;;8.30;57.80;;;;;;5005943;28;20269;-45
2022/02/07 09:34:42;;;;;;;4.27;2.70;;;8.30;57.70;;;;;;5010585;28;20637;-46
2022/02/07 09:37:07;;;;;;;3.13;1.27;;;8.40;57.30;;;;;;5011992;28;20190;-48
2022/02/07 09:39:33;;;;;;;8.23;2.50;;;8.20;57.00;;;;;;5008833;28;20248;-49
2022/02/07 09:42:03;;;;;;;7.80;1.63;;;8.20;57.40;;;;;;5014926;28;20223;-46
2022/02/07 09:44:40;;;;;;;3.00;2.00;;;8.00;57.10;;;;;;5003912;28;20685;-45
2022/02/07 09:47:08;;;;;;;4.40;1.00;;;8.10;58.20;;;;;;5020904;28;20471;-47
2022/02/07 09:49:34;;;;;;;7.63;2.27;;;8.50;57.90;;;;;;5004894;28;20528;-45
2022/02/07 09:52:00;;;;;;;4.33;1.83;;;8.60;57.50;;;;;;4994745;28;20544;-49
2022/02/07 09:54:25;;;;;;;3.67;1.30;;;8.50;56.40;;;;;;5002123;28;20955;-46
2022/02/07 09:56:52;;;;;;;4.63;1.60;;;8.50;56.60;;;;;;5007506;28;20198;-47
2022/02/07 09:59:21;;;;;;;8.23;1.50;;;8.60;56.80;;;;;;5010261;28;20193;-46
2022/02/07 10:01:51;;;;;;;9.63;1.80;;;8.40;56.50;;;;;;5009755;28;21017;-49
2022/02/07 10:04:28;;;;;;;3.33;1.23;;;8.60;56.70;;;;;;5008509;28;20979;-46
2022/02/07 10:07:44;;;;;;;3.90;1.30;;;8.90;57.50;;;;;;5010533;28;20843;-47
2022/02/07 10:15:46;;;;;;;8.70;1.50;;;8.90;55.70;;;;;;5012389;28;20548;-47
2022/02/07 10:19:23;;;;;;;8.70;2.47;;;9.10;56.00;;;;;;5014200;28;20451;-45
2022/02/07 10:46:10;;;;;;;3.80;1.40;;;9.30;54.60;;;;;;5010678;28;20440;-46
2022/02/07 10:48:42;;;;;;;6.53;1.50;;;9.40;54.00;;;;;;5011019;28;20202;-46
2022/02/07 10:51:20;;;;;;;6.83;2.33;;;9.30;53.80;;;;;;5012280;28;20487;-46
2022/02/07 10:53:48;;;;;;;9.10;1.27;;;9.20;53.90;;;;;;5014862;28;20440;-46
2022/02/07 10:56:20;;;;;;;7.93;1.30;;;9.30;54.40;;;;;;5009619;28;20522;-45
2022/02/07 10:58:49;;;;;;;3.43;1.20;;;9.50;54.40;;;;;;5012210;28;20441;-45
2022/02/07 11:03:56;;;;;;;7.53;1.20;;;9.40;52.80;;;;;;5014136;28;20841;-46
2022/02/07 11:06:30;;;;;;;6.80;1.93;;;9.50;53.10;;;;;;5005177;28;23791;-47
2022/02/07 11:16:43;;;;;;;3.87;1.23;;;8.90;53.20;;;;;;5006942;28;20826;-48
2022/02/07 11:19:39;;;;;;;4.90;1.47;;;9.10;54.10;;;;;;4998639;28;20824;-47
2022/02/07 11:24:59;;;;;;;9.33;7.93;;;9.60;52.90;;;;;;5018888;28;20487;-49
2022/02/07 11:27:28;;;;;;;7.57;6.97;;;9.30;51.70;;;;;;5009454;28;20437;-46
2022/02/07 11:29:54;;;;;;;3.83;1.67;;;9.10;52.50;;;;;;5012199;28;20471;-45
2022/02/07 11:35:09;;;;;;;11.80;1.70;;;9.20;52.40;;;;;;5012387;28;20775;-45
2022/02/07 11:37:35;;;;;;;4.80;1.20;;;9.00;52.10;;;;;;5013413;28;20449;-48
2022/02/07 11:40:21;;;;;;;7.77;1.57;;;8.90;53.10;;;;;;5012333;28;20440;-46
2022/02/07 11:43:09;;;;;;;2.90;1.47;;;9.00;53.30;;;;;;5012197;28;20465;-47
2022/02/07 11:45:58;;;;;;;7.80;1.50;;;8.80;52.90;;;;;;5009476;28;20453;-46
2022/02/07 11:48:26;;;;;;;4.20;1.63;;;8.90;53.00;;;;;;5010124;28;20563;-47
2022/02/07 11:51:00;;;;;;;8.30;1.90;;;8.80;52.80;;;;;;5009946;28;20453;-49
2022/02/07 11:53:58;;;;;;;3.30;1.50;;;8.60;53.00;;;;;;5008726;28;20441;-47
2022/02/07 11:56:26;;;;;;;4.03;1.23;;;8.90;53.10;;;;;;5004374;28;20919;-48
2022/02/07 11:59:01;;;;;;;4.27;1.30;;;9.00;53.00;;;;;;5014703;28;20445;-46
2022/02/07 12:02:11;;;;;;;4.77;1.60;;;8.80;52.60;;;;;;5009249;28;20474;-47
2022/02/07 12:04:42;;;;;;;9.97;1.70;;;8.70;53.30;;;;;;5005853;28;20583;-46
2022/02/07 12:07:11;;;;;;;3.43;1.40;;;8.60;53.00;;;;;;5024256;28;20444;-45
2022/02/07 12:09:38;;;;;;;4.50;1.67;;;8.70;53.30;;;;;;5004284;28;20838;-50
2022/02/07 12:12:04;;;;;;;4.77;1.60;;;8.80;53.30;;;;;;5008121;28;20430;-46
2022/02/07 12:14:30;;;;;;;4.40;1.80;;;8.80;53.00;;;;;;5008290;28;20983;-48
2022/02/07 12:16:56;;;;;;;4.73;1.83;;;8.70;53.50;;;;;;5011891;28;20436;-45
2022/02/07 12:19:37;;;;;;;4.23;1.40;;;8.90;53.50;;;;;;5006059;28;20430;-46
2022/02/07 12:22:16;;;;;;;3.97;1.60;;;9.20;53.30;;;;;;5008896;28;20618;-46
2022/02/07 12:24:56;;;;;;;6.20;2.07;;;9.20;52.90;;;;;;5011474;28;21407;-47
2022/02/07 12:27:23;;;;;;;4.20;1.40;;;9.10;53.00;;;;;;5008888;28;20480;-46
2022/02/07 12:32:33;;;;;;;5.33;1.43;;;9.00;52.40;;;;;;5010006;28;20495;-45
2022/02/07 12:34:59;;;;;;;11.63;1.80;;;9.00;52.80;;;;;;5003969;28;20844;-47
2022/02/07 12:37:25;;;;;;;11.93;2.37;;;9.00;52.80;;;;;;5009442;28;20209;-46
2022/02/07 12:39:51;;;;;;;4.20;1.57;;;9.20;52.90;;;;;;5007706;28;20429;-45
2022/02/07 12:42:16;;;;;;;5.37;1.37;;;9.30;52.50;;;;;;5010120;28;20571;-45
2022/02/07 12:44:42;;;;;;;7.00;2.10;;;9.30;52.50;;;;;;5007739;28;20241;-46
2022/02/07 12:47:12;;;;;;;5.63;1.63;;;9.30;52.40;;;;;;5010236;28;20942;-47
2022/02/07 12:49:38;;;;;;;4.73;1.13;;;9.30;52.40;;;;;;5008882;28;20206;-46
2022/02/07 12:52:04;;;;;;;5.63;1.30;;;9.30;52.50;;;;;;5010658;28;20437;-46
2022/02/07 12:54:36;;;;;;;6.10;1.47;;;9.30;52.20;;;;;;5010380;28;20441;-45
2022/02/07 12:57:03;;;;;;;3.40;1.33;;;9.20;52.00;;;;;;5011222;28;20437;-46
2022/02/07 12:59:29;;;;;;;5.80;2.70;;;9.20;52.00;;;;;;5008879;28;20456;-47
2022/02/07 13:01:55;;;;;;;6.93;1.33;;;9.30;52.10;;;;;;5010749;28;20437;-46
2022/02/07 13:04:22;;;;;;;6.83;1.63;;;9.20;51.70;;;;;;5008019;28;20244;-46
2022/02/07 13:06:54;;;;;;;7.43;1.90;;;9.10;52.00;;;;;;5014261;28;20194;-46
2022/02/07 13:09:21;;;;;;;3.80;1.47;;;9.30;52.10;;;;;;5003303;28;20830;-46
2022/02/07 13:12:00;;;;;;;8.70;2.00;;;9.20;51.60;;;;;;5004963;28;20523;-45
2022/02/07 13:14:26;;;;;;;2.70;1.10;;;9.20;51.60;;;;;;5007709;28;20489;-46
2022/02/07 13:16:51;;;;;;;3.87;1.37;;;9.30;52.40;;;;;;5010589;28;20441;-45
2022/02/07 13:19:21;;;;;;;6.17;1.57;;;9.60;52.40;;;;;;5008754;28;20198;-46
2022/02/07 13:21:53;;;;;;;2.40;1.30;;;9.50;51.80;;;;;;5001890;28;20206;-46
2022/02/07 13:24:31;;;;;;;6.10;1.70;;;9.60;52.00;;;;;;5009807;28;20496;-47
2022/02/07 13:27:00;;;;;;;4.13;1.10;;;9.20;51.70;;;;;;5006339;28;20445;-47
2022/02/07 13:29:26;;;;;;;4.20;1.60;;;9.10;52.30;;;;;;5013394;28;20466;-46
2022/02/07 13:31:59;;;;;;;16.50;1.87;;;9.20;52.60;;;;;;5013250;28;20448;-46
2022/02/07 13:34:28;;;;;;;6.77;1.40;;;9.20;52.80;;;;;;5011377;28;20456;-46
2022/02/07 13:37:16;;;;;;;2.27;1.37;;;9.40;52.80;;;;;;5012312;28;20840;-47
2022/02/07 13:40:05;;;;;;;8.20;1.80;;;9.30;52.50;;;;;;5006492;28;20438;-47
2022/02/07 13:42:31;;;;;;;5.57;1.97;;;9.20;52.50;;;;;;5007385;28;20444;-48
2022/02/07 13:45:04;;;;;;;10.33;2.50;;;9.10;52.80;;;;;;5008458;28;20539;-47
2022/02/07 13:47:30;;;;;;;8.83;1.73;;;9.10;52.80;;;;;;5003847;28;20482;-45
2022/02/07 13:49:57;;;;;;;8.30;2.20;;;9.20;53.20;;;;;;5006098;28;20448;-48
2022/02/07 13:52:27;;;;;;;11.23;2.33;;;9.40;53.00;;;;;;5007624;28;20437;-46
2022/02/07 13:54:53;;;;;;;6.60;1.80;;;9.20;52.90;;;;;;5011286;28;20425;-47
2022/02/07 13:57:18;;;;;;;3.63;2.10;;;9.10;53.20;;;;;;5010191;28;20443;-46
2022/02/07 13:59:44;;;;;;;7.60;1.30;;;8.90;53.20;;;;;;5011146;28;20213;-45
2022/02/07 14:02:27;;;;;;;2.93;1.43;;;8.90;53.30;;;;;;5002312;28;20195;-46
2022/02/07 14:04:54;;;;;;;4.67;1.20;;;8.90;53.60;;;;;;5007201;28;20221;-45
2022/02/07 14:07:19;;;;;;;4.10;1.77;;;9.10;53.50;;;;;;5006796;28;20433;-46
2022/02/07 14:09:45;;;;;;;5.20;1.53;;;9.40;53.20;;;;;;4992912;28;20483;-47
2022/02/07 14:12:13;;;;;;;2.80;1.27;;;9.30;52.30;;;;;;5010052;28;20645;-45
2022/02/07 14:14:39;;;;;;;4.70;1.80;;;9.30;52.80;;;;;;5010998;28;20253;-47
2022/02/07 14:17:05;;;;;;;5.10;1.80;;;9.30;53.10;;;;;;5009809;28;20438;-45
2022/02/07 14:19:49;;;;;;;2.70;1.30;;;9.20;53.40;;;;;;5011233;28;20193;-45
2022/02/07 14:22:15;;;;;;;4.33;1.47;;;9.20;53.50;;;;;;5005734;28;20468;-45
2022/02/07 14:24:41;;;;;;;5.07;1.60;;;9.10;53.30;;;;;;5011385;28;20480;-45
2022/02/07 14:27:07;;;;;;;3.20;2.07;;;9.20;53.40;;;;;;5010371;28;21235;-45
2022/02/07 14:29:33;;;;;;;6.07;1.90;;;9.20;52.90;;;;;;5010645;28;20202;-47
2022/02/07 14:32:00;;;;;;;10.73;1.70;;;9.20;53.10;;;;;;5004304;28;20989;-45
2022/02/07 14:34:26;;;;;;;4.63;1.43;;;9.30;53.00;;;;;;5010200;28;20208;-48
2022/02/07 14:36:52;;;;;;;3.23;1.57;;;9.10;52.90;;;;;;5010263;28;20471;-48
2022/02/07 14:39:17;;;;;;;5.23;1.33;;;9.10;53.10;;;;;;5008968;28;20437;-46
2022/02/07 14:41:46;;;;;;;4.70;1.83;;;8.90;52.60;;;;;;5005954;28;20281;-47
2022/02/07 14:44:19;;;;;;;3.27;1.67;;;9.00;53.10;;;;;;5009774;28;20279;-47
2022/02/07 14:49:31;;;;;;;6.87;1.37;;;8.80;53.80;;;;;;4995782;23;20493;-45
2022/02/07 14:51:59;;;;;;;3.80;1.40;;;8.90;53.80;;;;;;4992894;28;20824;-47
2022/02/07 14:54:25;;;;;;;5.73;1.47;;;8.90;54.00;;;;;;4997616;28;20673;-45
2022/02/07 14:56:51;;;;;;;5.17;1.47;;;8.90;53.80;;;;;;4987078;28;20798;-45
2022/02/07 14:59:18;;;;;;;3.40;1.60;;;8.90;53.80;;;;;;4990156;28;20436;-45
2022/02/07 15:01:47;;;;;;;4.43;1.37;;;8.90;53.50;;;;;;5001092;28;20588;-48
2022/02/07 15:04:13;;;;;;;2.47;1.30;;;9.00;53.30;;;;;;4992759;28;20619;-48
2022/02/07 15:06:38;;;;;;;1.90;1.30;;;9.00;53.00;;;;;;4994585;28;20442;-46
2022/02/07 15:09:04;;;;;;;7.77;1.77;;;8.90;52.80;;;;;;4990534;28;20190;-50
2022/02/07 15:11:29;;;;;;;2.57;1.60;;;8.90;52.90;;;;;;4994720;28;20274;-46
2022/02/07 15:13:55;;;;;;;6.00;1.73;;;9.00;52.60;;;;;;4988786;28;20290;-47
2022/02/07 15:16:21;;;;;;;2.90;1.20;;;9.20;52.30;;;;;;4990737;28;20634;-46
2022/02/07 15:18:47;;;;;;;4.63;1.70;;;9.30;52.30;;;;;;4992178;28;20202;-46
2022/02/07 15:21:14;;;;;;;3.10;1.90;;;9.20;51.80;;;;;;4986064;28;20471;-50
2022/02/07 15:23:41;;;;;;;2.33;1.80;;;9.40;52.10;;;;;;4990572;28;20481;-47
2022/02/07 15:26:07;;;;;;;5.00;1.60;;;9.50;51.60;;;;;;4984703;28;20201;-51
2022/02/07 15:28:33;;;;;;;4.50;1.90;;;9.50;51.30;;;;;;4990403;28;20441;-46
2022/02/07 15:30:59;;;;;;;7.07;2.13;;;9.70;51.20;;;;;;4986143;28;20250;-47
2022/02/07 15:33:33;;;;;;;4.33;1.43;;;9.60;50.90;;;;;;4984264;28;20949;-46
2022/02/07 15:35:59;;;;;;;5.43;2.23;;;9.60;50.90;;;;;;4991404;28;20201;-47
2022/02/07 15:38:25;;;;;;;3.27;1.73;;;9.80;51.40;;;;;;4989153;28;20441;-49
2022/02/07 15:40:52;;;;;;;3.23;1.70;;;9.60;51.00;;;;;;4984530;28;20654;-45